sensor_id;sensor_type;location;lat;lon;timestamp;pressure;altitude;pressure_sealevel;temperature;humidity
10176;BME280;18221;38.704;0.152;2023-08-08T00:13:11;99097.38;;;30.14;42.46
10176;BME280;18221;38.704;0.152;2023-08-08T00:15:39;99086.44;;;30.19;42.48
10176;BME280;18221;38.704;0.152;2023-08-08T00:18:07;99093.81;;;30.09;42.52
10176;BME280;18221;38.704;0.152;2023-08-08T00:20:35;99096.19;;;30.00;42.81
10176;BME280;18221;38.704;0.152;2023-08-08T00:23:04;99098.06;;;29.94;42.87
10176;BME280;18221;38.704;0.152;2023-08-08T00:25:32;99093.16;;;29.96;42.81
10176;BME280;18221;38.704;0.152;2023-08-08T00:28:00;99089.56;;;29.91;43.24
10176;BME280;18221;38.704;0.152;2023-08-08T00:30:29;99088.19;;;29.93;43.05
10176;BME280;18221;38.704;0.152;2023-08-08T00:32:59;99080.00;;;29.98;42.75
10176;BME280;18221;38.704;0.152;2023-08-08T00:35:27;99079.19;;;29.93;43.20
10176;BME280;18221;38.704;0.152;2023-08-08T00:37:55;99078.66;;;30.01;43.25
10176;BME280;18221;38.704;0.152;2023-08-08T00:40:23;99074.91;;;30.12;42.68
10176;BME280;18221;38.704;0.152;2023-08-08T00:42:51;99071.31;;;30.07;43.20
10176;BME280;18221;38.704;0.152;2023-08-08T00:45:19;99065.00;;;30.06;43.05
10176;BME280;18221;38.704;0.152;2023-08-08T00:47:49;99066.09;;;30.05;43.13
10176;BME280;18221;38.704;0.152;2023-08-08T00:50:17;99068.91;;;30.15;42.55
10176;BME280;18221;38.704;0.152;2023-08-08T00:52:46;99058.47;;;30.12;42.84
10176;BME280;18221;38.704;0.152;2023-08-08T00:55:16;99061.50;;;30.11;42.99
10176;BME280;18221;38.704;0.152;2023-08-08T00:57:45;99060.78;;;29.88;42.84
10176;BME280;18221;38.704;0.152;2023-08-08T01:00:14;99064.03;;;29.85;43.08
10176;BME280;18221;38.704;0.152;2023-08-08T01:02:42;99053.44;;;29.94;43.06
10176;BME280;18221;38.704;0.152;2023-08-08T01:05:12;99050.75;;;30.04;42.87
10176;BME280;18221;38.704;0.152;2023-08-08T01:07:54;99043.19;;;30.16;42.80
10176;BME280;18221;38.704;0.152;2023-08-08T01:10:29;99043.94;;;30.07;42.32
10176;BME280;18221;38.704;0.152;2023-08-08T01:13:05;99046.63;;;30.02;42.76
10176;BME280;18221;38.704;0.152;2023-08-08T01:15:34;99050.22;;;30.07;43.10
10176;BME280;18221;38.704;0.152;2023-08-08T01:18:05;99036.28;;;30.09;42.47
10176;BME280;18221;38.704;0.152;2023-08-08T01:20:37;99038.75;;;30.10;42.66
10176;BME280;18221;38.704;0.152;2023-08-08T01:23:14;99041.13;;;29.96;42.97
10176;BME280;18221;38.704;0.152;2023-08-08T01:25:46;99042.50;;;29.99;43.14
10176;BME280;18221;38.704;0.152;2023-08-08T01:28:15;99033.75;;;29.97;43.49
10176;BME280;18221;38.704;0.152;2023-08-08T01:30:44;99044.91;;;29.90;43.23
10176;BME280;18221;38.704;0.152;2023-08-08T01:33:12;99033.22;;;30.00;43.49
10176;BME280;18221;38.704;0.152;2023-08-08T01:35:45;99034.50;;;29.87;43.34
10176;BME280;18221;38.704;0.152;2023-08-08T01:38:22;99034.50;;;29.87;42.89
10176;BME280;18221;38.704;0.152;2023-08-08T01:40:56;99029.09;;;29.98;43.27
10176;BME280;18221;38.704;0.152;2023-08-08T01:43:25;99027.75;;;30.00;42.95
10176;BME280;18221;38.704;0.152;2023-08-08T01:45:54;99027.25;;;30.08;42.82
10176;BME280;18221;38.704;0.152;2023-08-08T01:48:22;99020.09;;;30.02;43.02
10176;BME280;18221;38.704;0.152;2023-08-08T01:50:50;99020.63;;;30.04;42.91
10176;BME280;18221;38.704;0.152;2023-08-08T01:53:18;99022.88;;;30.12;42.86
10176;BME280;18221;38.704;0.152;2023-08-08T01:55:46;99020.97;;;30.13;42.65
10176;BME280;18221;38.704;0.152;2023-08-08T01:58:16;99018.75;;;30.10;42.95
10176;BME280;18221;38.704;0.152;2023-08-08T02:00:44;99011.31;;;30.00;42.93
10176;BME280;18221;38.704;0.152;2023-08-08T02:03:13;99017.34;;;30.02;42.62
10176;BME280;18221;38.704;0.152;2023-08-08T02:05:41;99010.28;;;30.11;42.71
10176;BME280;18221;38.704;0.152;2023-08-08T02:08:09;99003.19;;;30.15;42.65
10176;BME280;18221;38.704;0.152;2023-08-08T02:10:37;99010.00;;;30.13;42.54
10176;BME280;18221;38.704;0.152;2023-08-08T02:13:05;99005.63;;;30.12;42.81
10176;BME280;18221;38.704;0.152;2023-08-08T02:15:34;99007.47;;;30.01;42.96
10176;BME280;18221;38.704;0.152;2023-08-08T02:18:12;99001.72;;;29.98;43.22
10176;BME280;18221;38.704;0.152;2023-08-08T02:20:40;98999.56;;;30.05;43.07
10176;BME280;18221;38.704;0.152;2023-08-08T02:23:08;99002.28;;;30.00;43.46
10176;BME280;18221;38.704;0.152;2023-08-08T02:25:36;98996.84;;;30.10;43.20
10176;BME280;18221;38.704;0.152;2023-08-08T02:28:05;98993.28;;;30.09;43.18
10176;BME280;18221;38.704;0.152;2023-08-08T02:30:34;98992.41;;;30.04;43.31
10176;BME280;18221;38.704;0.152;2023-08-08T02:33:02;98994.59;;;29.96;43.61
10176;BME280;18221;38.704;0.152;2023-08-08T02:35:30;98993.22;;;29.99;43.13
10176;BME280;18221;38.704;0.152;2023-08-08T02:37:58;98993.19;;;29.94;43.42
10176;BME280;18221;38.704;0.152;2023-08-08T02:40:25;98985.53;;;29.96;43.63
10176;BME280;18221;38.704;0.152;2023-08-08T02:42:54;98987.66;;;29.79;43.63
10176;BME280;18221;38.704;0.152;2023-08-08T02:45:22;98992.13;;;29.95;43.51
10176;BME280;18221;38.704;0.152;2023-08-08T02:47:51;98989.97;;;30.02;43.22
10176;BME280;18221;38.704;0.152;2023-08-08T02:50:19;98994.88;;;30.00;43.39
10176;BME280;18221;38.704;0.152;2023-08-08T02:52:47;98986.13;;;29.98;43.59
10176;BME280;18221;38.704;0.152;2023-08-08T02:55:16;98983.13;;;30.05;43.06
10176;BME280;18221;38.704;0.152;2023-08-08T02:57:44;98984.50;;;30.07;43.38
10176;BME280;18221;38.704;0.152;2023-08-08T03:00:13;98985.34;;;30.08;43.02
10176;BME280;18221;38.704;0.152;2023-08-08T03:02:41;98989.69;;;30.04;43.33
10176;BME280;18221;38.704;0.152;2023-08-08T03:05:09;98999.28;;;30.06;43.41
10176;BME280;18221;38.704;0.152;2023-08-08T03:07:37;98999.84;;;30.03;43.11
10176;BME280;18221;38.704;0.152;2023-08-08T03:10:06;99008.09;;;30.08;43.02
10176;BME280;18221;38.704;0.152;2023-08-08T03:12:37;99002.88;;;30.12;43.08
10176;BME280;18221;38.704;0.152;2023-08-08T03:15:07;99003.69;;;30.07;42.96
10176;BME280;18221;38.704;0.152;2023-08-08T03:17:35;98994.38;;;30.08;43.20
10176;BME280;18221;38.704;0.152;2023-08-08T03:20:05;99001.22;;;30.06;43.13
10176;BME280;18221;38.704;0.152;2023-08-08T03:22:34;98998.19;;;30.02;42.98
10176;BME280;18221;38.704;0.152;2023-08-08T03:25:02;98991.59;;;29.98;43.20
10176;BME280;18221;38.704;0.152;2023-08-08T03:27:31;98999.53;;;30.00;43.47
10176;BME280;18221;38.704;0.152;2023-08-08T03:29:59;98989.41;;;30.00;43.28
10176;BME280;18221;38.704;0.152;2023-08-08T03:32:28;98989.09;;;29.91;43.71
10176;BME280;18221;38.704;0.152;2023-08-08T03:34:56;98988.28;;;29.96;43.49
10176;BME280;18221;38.704;0.152;2023-08-08T03:37:24;98985.00;;;29.94;43.65
10176;BME280;18221;38.704;0.152;2023-08-08T03:39:53;98978.09;;;29.86;43.80
10176;BME280;18221;38.704;0.152;2023-08-08T03:42:21;98986.88;;;29.88;43.65
10176;BME280;18221;38.704;0.152;2023-08-08T03:44:49;98990.94;;;29.81;44.19
10176;BME280;18221;38.704;0.152;2023-08-08T03:47:17;98991.16;;;29.74;44.30
10176;BME280;18221;38.704;0.152;2023-08-08T03:49:45;98992.78;;;29.75;44.08
10176;BME280;18221;38.704;0.152;2023-08-08T03:52:13;98999.63;;;29.78;44.29
10176;BME280;18221;38.704;0.152;2023-08-08T03:54:43;99012.31;;;29.84;43.70
10176;BME280;18221;38.704;0.152;2023-08-08T03:57:13;99007.94;;;29.88;43.88
10176;BME280;18221;38.704;0.152;2023-08-08T03:59:41;99007.16;;;29.92;43.93
10176;BME280;18221;38.704;0.152;2023-08-08T04:02:09;99001.94;;;29.91;43.92
10176;BME280;18221;38.704;0.152;2023-08-08T04:04:37;99010.75;;;29.93;43.73
10176;BME280;18221;38.704;0.152;2023-08-08T04:07:05;99009.91;;;29.92;43.90
10176;BME280;18221;38.704;0.152;2023-08-08T04:09:33;99010.69;;;29.88;44.13
10176;BME280;18221;38.704;0.152;2023-08-08T04:12:01;99010.59;;;29.78;44.63
10176;BME280;18221;38.704;0.152;2023-08-08T04:14:30;99008.38;;;29.75;44.85
10176;BME280;18221;38.704;0.152;2023-08-08T04:16:58;99023.09;;;29.64;44.71
10176;BME280;18221;38.704;0.152;2023-08-08T04:19:26;99014.63;;;29.70;44.73
10176;BME280;18221;38.704;0.152;2023-08-08T04:21:54;99024.78;;;29.75;44.64
10176;BME280;18221;38.704;0.152;2023-08-08T04:24:22;99018.53;;;29.74;44.73
10176;BME280;18221;38.704;0.152;2023-08-08T04:26:50;99017.75;;;29.79;44.60
10176;BME280;18221;38.704;0.152;2023-08-08T04:29:18;99020.00;;;29.87;44.72
10176;BME280;18221;38.704;0.152;2023-08-08T04:31:48;99021.34;;;29.84;44.37
10176;BME280;18221;38.704;0.152;2023-08-08T04:34:17;99024.00;;;29.74;44.33
10176;BME280;18221;38.704;0.152;2023-08-08T04:36:45;99016.03;;;29.73;44.71
10176;BME280;18221;38.704;0.152;2023-08-08T04:39:13;99015.47;;;29.71;44.58
10176;BME280;18221;38.704;0.152;2023-08-08T04:41:41;99018.75;;;29.73;44.49
10176;BME280;18221;38.704;0.152;2023-08-08T04:44:12;99011.09;;;29.75;44.71
10176;BME280;18221;38.704;0.152;2023-08-08T04:46:40;99014.41;;;29.72;44.25
10176;BME280;18221;38.704;0.152;2023-08-08T04:49:09;99027.94;;;29.57;45.02
10176;BME280;18221;38.704;0.152;2023-08-08T04:51:37;99023.06;;;29.59;45.23
10176;BME280;18221;38.704;0.152;2023-08-08T04:54:05;99019.84;;;29.67;44.91
10176;BME280;18221;38.704;0.152;2023-08-08T04:56:33;99024.00;;;29.74;44.88
10176;BME280;18221;38.704;0.152;2023-08-08T04:59:03;99021.59;;;29.83;44.83
10176;BME280;18221;38.704;0.152;2023-08-08T05:01:32;99013.84;;;29.75;44.66
10176;BME280;18221;38.704;0.152;2023-08-08T05:04:00;99014.53;;;29.55;45.16
10176;BME280;18221;38.704;0.152;2023-08-08T05:06:29;99012.88;;;29.54;45.21
10176;BME280;18221;38.704;0.152;2023-08-08T05:08:57;99014.22;;;29.52;44.96
10176;BME280;18221;38.704;0.152;2023-08-08T05:11:25;99017.16;;;29.40;45.20
10176;BME280;18221;38.704;0.152;2023-08-08T05:13:53;99027.28;;;29.40;45.52
10176;BME280;18221;38.704;0.152;2023-08-08T05:16:21;99024.84;;;29.43;45.24
10176;BME280;18221;38.704;0.152;2023-08-08T05:18:50;99025.88;;;29.37;45.67
10176;BME280;18221;38.704;0.152;2023-08-08T05:21:19;99028.38;;;29.44;45.31
10176;BME280;18221;38.704;0.152;2023-08-08T05:23:48;99030.56;;;29.42;45.75
10176;BME280;18221;38.704;0.152;2023-08-08T05:26:17;99030.16;;;29.28;45.80
10176;BME280;18221;38.704;0.152;2023-08-08T05:28:44;99037.63;;;29.32;45.67
10176;BME280;18221;38.704;0.152;2023-08-08T05:31:12;99037.94;;;29.41;45.97
10176;BME280;18221;38.704;0.152;2023-08-08T05:33:40;99034.47;;;29.51;45.44
10176;BME280;18221;38.704;0.152;2023-08-08T05:36:09;99041.59;;;29.52;45.18
10176;BME280;18221;38.704;0.152;2023-08-08T05:38:37;99031.72;;;29.46;45.63
10176;BME280;18221;38.704;0.152;2023-08-08T05:41:07;99032.31;;;29.53;45.24
10176;BME280;18221;38.704;0.152;2023-08-08T05:43:35;99027.94;;;29.57;45.50
10176;BME280;18221;38.704;0.152;2023-08-08T05:46:03;99024.56;;;29.45;45.47
10176;BME280;18221;38.704;0.152;2023-08-08T05:48:31;99035.19;;;29.41;45.89
10176;BME280;18221;38.704;0.152;2023-08-08T05:50:58;99029.22;;;29.44;45.38
10176;BME280;18221;38.704;0.152;2023-08-08T05:53:28;99030.34;;;29.48;45.11
10176;BME280;18221;38.704;0.152;2023-08-08T05:55:56;99031.19;;;29.49;45.51
10176;BME280;18221;38.704;0.152;2023-08-08T05:58:26;99032.56;;;29.51;45.41
10176;BME280;18221;38.704;0.152;2023-08-08T06:00:54;99033.97;;;29.54;45.41
10176;BME280;18221;38.704;0.152;2023-08-08T06:03:24;99033.22;;;29.63;45.64
10176;BME280;18221;38.704;0.152;2023-08-08T06:05:52;99039.47;;;29.59;45.70
10176;BME280;18221;38.704;0.152;2023-08-08T06:08:20;99034.81;;;29.59;45.42
10176;BME280;18221;38.704;0.152;2023-08-08T06:10:50;99034.09;;;29.74;45.04
10176;BME280;18221;38.704;0.152;2023-08-08T06:13:18;99034.63;;;29.71;44.78
10176;BME280;18221;38.704;0.152;2023-08-08T06:15:48;99034.28;;;29.62;44.99
10176;BME280;18221;38.704;0.152;2023-08-08T06:18:17;99034.47;;;29.51;44.98
10176;BME280;18221;38.704;0.152;2023-08-08T06:20:45;99044.28;;;29.47;44.91
10176;BME280;18221;38.704;0.152;2023-08-08T06:23:13;99045.44;;;29.51;44.67
10176;BME280;18221;38.704;0.152;2023-08-08T06:25:41;99041.81;;;29.45;45.16
10176;BME280;18221;38.704;0.152;2023-08-08T06:28:09;99047.59;;;29.49;45.05
10176;BME280;18221;38.704;0.152;2023-08-08T06:30:37;99035.69;;;29.70;45.03
10176;BME280;18221;38.704;0.152;2023-08-08T06:33:07;99031.44;;;29.79;44.45
10176;BME280;18221;38.704;0.152;2023-08-08T06:35:35;99039.41;;;29.85;44.70
10176;BME280;18221;38.704;0.152;2023-08-08T06:38:03;99030.38;;;29.80;44.84
10176;BME280;18221;38.704;0.152;2023-08-08T06:40:31;99036.84;;;29.74;44.77
10176;BME280;18221;38.704;0.152;2023-08-08T06:42:58;99033.78;;;29.70;44.67
10176;BME280;18221;38.704;0.152;2023-08-08T06:45:26;99044.59;;;29.82;44.82
10176;BME280;18221;38.704;0.152;2023-08-08T06:47:54;99051.81;;;29.93;44.64
10176;BME280;18221;38.704;0.152;2023-08-08T06:50:24;99057.09;;;30.10;44.36
10176;BME280;18221;38.704;0.152;2023-08-08T06:52:52;99064.53;;;30.19;43.73
10176;BME280;18221;38.704;0.152;2023-08-08T06:55:20;99060.13;;;30.13;44.14
10176;BME280;18221;38.704;0.152;2023-08-08T06:57:48;99063.09;;;30.07;43.96
10176;BME280;18221;38.704;0.152;2023-08-08T07:00:16;99053.25;;;30.06;44.20
10176;BME280;18221;38.704;0.152;2023-08-08T07:02:44;99045.91;;;30.11;44.22
10176;BME280;18221;38.704;0.152;2023-08-08T07:05:12;99059.34;;;30.18;43.97
10176;BME280;18221;38.704;0.152;2023-08-08T07:07:42;99072.72;;;30.14;43.86
10176;BME280;18221;38.704;0.152;2023-08-08T07:10:11;99082.31;;;30.17;44.41
10176;BME280;18221;38.704;0.152;2023-08-08T07:12:39;99087.91;;;30.32;43.80
10176;BME280;18221;38.704;0.152;2023-08-08T07:15:09;99091.63;;;30.52;43.33
10176;BME280;18221;38.704;0.152;2023-08-08T07:17:37;99096.00;;;30.58;43.43
10176;BME280;18221;38.704;0.152;2023-08-08T07:20:06;99105.94;;;30.70;42.72
10176;BME280;18221;38.704;0.152;2023-08-08T07:22:36;99093.94;;;30.81;42.19
10176;BME280;18221;38.704;0.152;2023-08-08T07:25:07;99089.53;;;30.80;41.91
10176;BME280;18221;38.704;0.152;2023-08-08T07:27:35;99098.88;;;30.79;42.14
10176;BME280;18221;38.704;0.152;2023-08-08T07:30:04;99094.50;;;30.88;41.63
10176;BME280;18221;38.704;0.152;2023-08-08T07:32:33;99105.53;;;30.98;41.42
10176;BME280;18221;38.704;0.152;2023-08-08T07:35:01;99098.69;;;31.00;41.44
10176;BME280;18221;38.704;0.152;2023-08-08T07:37:32;99097.78;;;30.90;41.39
10176;BME280;18221;38.704;0.152;2023-08-08T07:40:00;99095.84;;;30.85;41.79
10176;BME280;18221;38.704;0.152;2023-08-08T07:42:29;99087.34;;;30.82;42.08
10176;BME280;18221;38.704;0.152;2023-08-08T07:44:57;99084.97;;;31.00;42.29
10176;BME280;18221;38.704;0.152;2023-08-08T07:47:25;99092.97;;;31.17;41.82
10176;BME280;18221;38.704;0.152;2023-08-08T07:49:53;99074.06;;;31.26;41.06
10176;BME280;18221;38.704;0.152;2023-08-08T07:52:21;99074.13;;;31.46;40.41
10176;BME280;18221;38.704;0.152;2023-08-08T07:54:49;99084.53;;;31.89;39.69
10176;BME280;18221;38.704;0.152;2023-08-08T07:57:17;99087.78;;;32.31;38.66
10176;BME280;18221;38.704;0.152;2023-08-08T07:59:47;99101.81;;;32.35;38.29
10176;BME280;18221;38.704;0.152;2023-08-08T08:02:15;99098.53;;;32.23;38.02
10176;BME280;18221;38.704;0.152;2023-08-08T08:04:43;99105.16;;;32.02;38.31
10176;BME280;18221;38.704;0.152;2023-08-08T08:07:11;99098.00;;;32.11;38.16
10176;BME280;18221;38.704;0.152;2023-08-08T08:09:39;99096.09;;;32.01;38.64
10176;BME280;18221;38.704;0.152;2023-08-08T08:12:09;99102.13;;;31.93;38.79
10176;BME280;18221;38.704;0.152;2023-08-08T08:14:37;99105.97;;;31.72;39.54
10176;BME280;18221;38.704;0.152;2023-08-08T08:17:06;99117.22;;;31.86;39.37
10176;BME280;18221;38.704;0.152;2023-08-08T08:19:35;99109.53;;;31.72;39.76
10176;BME280;18221;38.704;0.152;2023-08-08T08:22:03;99112.22;;;31.42;40.65
10176;BME280;18221;38.704;0.152;2023-08-08T08:24:31;99101.81;;;31.44;40.94
10176;BME280;18221;38.704;0.152;2023-08-08T08:26:59;99107.63;;;31.88;39.93
10176;BME280;18221;38.704;0.152;2023-08-08T08:29:28;99102.13;;;32.13;38.72
10176;BME280;18221;38.704;0.152;2023-08-08T08:31:57;99112.84;;;32.00;38.76
10176;BME280;18221;38.704;0.152;2023-08-08T08:34:26;99118.31;;;32.15;38.66
10176;BME280;18221;38.704;0.152;2023-08-08T08:36:54;99124.94;;;32.14;38.86
10176;BME280;18221;38.704;0.152;2023-08-08T08:39:22;99130.34;;;32.44;38.14
10176;BME280;18221;38.704;0.152;2023-08-08T08:41:59;99125.38;;;32.71;37.70
10176;BME280;18221;38.704;0.152;2023-08-08T08:44:31;99128.94;;;32.77;37.24
10176;BME280;18221;38.704;0.152;2023-08-08T08:47:02;99118.94;;;32.91;37.50
10176;BME280;18221;38.704;0.152;2023-08-08T08:49:35;99113.69;;;33.00;37.04
10176;BME280;18221;38.704;0.152;2023-08-08T08:52:04;99115.97;;;32.82;37.06
10176;BME280;18221;38.704;0.152;2023-08-08T08:54:33;99105.59;;;32.69;37.16
10176;BME280;18221;38.704;0.152;2023-08-08T08:57:01;99098.41;;;32.73;37.09
10176;BME280;18221;38.704;0.152;2023-08-08T08:59:30;99089.06;;;32.64;37.38
10176;BME280;18221;38.704;0.152;2023-08-08T09:01:58;99082.53;;;32.55;37.66
10176;BME280;18221;38.704;0.152;2023-08-08T09:04:29;99072.66;;;32.39;38.19
10176;BME280;18221;38.704;0.152;2023-08-08T09:06:59;99074.06;;;32.31;37.86
10176;BME280;18221;38.704;0.152;2023-08-08T09:09:31;99084.56;;;32.09;38.56
10176;BME280;18221;38.704;0.152;2023-08-08T09:11:59;99075.97;;;32.26;38.13
10176;BME280;18221;38.704;0.152;2023-08-08T09:14:27;99067.22;;;31.99;38.64
10176;BME280;18221;38.704;0.152;2023-08-08T09:16:55;99061.19;;;31.82;39.38
10176;BME280;18221;38.704;0.152;2023-08-08T09:19:24;99073.56;;;31.84;39.06
10176;BME280;18221;38.704;0.152;2023-08-08T09:21:53;99075.19;;;32.10;38.85
10176;BME280;18221;38.704;0.152;2023-08-08T09:24:22;99076.50;;;32.33;38.53
10176;BME280;18221;38.704;0.152;2023-08-08T09:26:50;99098.53;;;32.23;38.73
10176;BME280;18221;38.704;0.152;2023-08-08T09:29:18;99126.28;;;32.26;38.21
10176;BME280;18221;38.704;0.152;2023-08-08T09:31:47;99132.00;;;32.45;38.06
10176;BME280;18221;38.704;0.152;2023-08-08T09:34:16;99138.03;;;32.62;37.96
10176;BME280;18221;38.704;0.152;2023-08-08T09:36:44;99146.56;;;32.66;37.73
10176;BME280;18221;38.704;0.152;2023-08-08T09:39:13;99133.63;;;32.46;38.19
10176;BME280;18221;38.704;0.152;2023-08-08T09:41:42;99134.22;;;32.43;38.53
10176;BME280;18221;38.704;0.152;2023-08-08T09:44:13;99136.97;;;32.53;38.33
10176;BME280;18221;38.704;0.152;2023-08-08T09:46:42;99128.97;;;32.67;37.24
10176;BME280;18221;38.704;0.152;2023-08-08T09:49:10;99133.09;;;32.54;37.87
10176;BME280;18221;38.704;0.152;2023-08-08T09:51:39;99125.41;;;32.41;37.99
10176;BME280;18221;38.704;0.152;2023-08-08T09:54:08;99108.69;;;32.27;38.32
10176;BME280;18221;38.704;0.152;2023-08-08T09:56:37;99098.53;;;32.13;38.96
10176;BME280;18221;38.704;0.152;2023-08-08T09:59:07;99107.59;;;31.98;39.15
10176;BME280;18221;38.704;0.152;2023-08-08T10:01:40;99112.28;;;31.88;39.18
10176;BME280;18221;38.704;0.152;2023-08-08T10:04:08;99091.97;;;32.09;39.04
10176;BME280;18221;38.704;0.152;2023-08-08T10:06:36;99085.91;;;32.02;39.01
10176;BME280;18221;38.704;0.152;2023-08-08T10:09:04;99093.06;;;32.03;38.65
10176;BME280;18221;38.704;0.152;2023-08-08T10:11:33;99090.56;;;32.26;38.09
10176;BME280;18221;38.704;0.152;2023-08-08T10:14:03;99106.97;;;32.47;38.14
10176;BME280;18221;38.704;0.152;2023-08-08T10:16:37;99110.56;;;32.47;38.28
10176;BME280;18221;38.704;0.152;2023-08-08T10:19:05;99123.16;;;32.73;37.36
10176;BME280;18221;38.704;0.152;2023-08-08T10:21:36;99136.00;;;32.88;37.69
10176;BME280;18221;38.704;0.152;2023-08-08T10:24:07;99123.69;;;32.75;37.07
10176;BME280;18221;38.704;0.152;2023-08-08T10:26:56;99128.97;;;32.52;37.64
10176;BME280;18221;38.704;0.152;2023-08-08T10:29:28;99131.47;;;32.53;37.81
10176;BME280;18221;38.704;0.152;2023-08-08T10:32:02;99128.38;;;32.70;38.12
10176;BME280;18221;38.704;0.152;2023-08-08T10:34:38;99124.00;;;32.69;37.88
10176;BME280;18221;38.704;0.152;2023-08-08T10:37:10;99122.09;;;32.59;37.47
10176;BME280;18221;38.704;0.152;2023-08-08T10:39:50;99118.81;;;32.57;37.88
10176;BME280;18221;38.704;0.152;2023-08-08T10:42:19;99115.53;;;32.55;37.72
10176;BME280;18221;38.704;0.152;2023-08-08T10:44:52;99105.88;;;32.63;37.42
10176;BME280;18221;38.704;0.152;2023-08-08T10:47:24;99091.31;;;32.47;37.88
10176;BME280;18221;38.704;0.152;2023-08-08T10:50:04;99093.50;;;32.50;38.03
10176;BME280;18221;38.704;0.152;2023-08-08T10:52:33;99117.19;;;32.36;38.36
10176;BME280;18221;38.704;0.152;2023-08-08T10:55:03;99106.16;;;32.41;38.37
10176;BME280;18221;38.704;0.152;2023-08-08T10:57:31;99072.94;;;32.43;37.87
10176;BME280;18221;38.704;0.152;2023-08-08T11:00:17;99064.38;;;32.44;38.23
10176;BME280;18221;38.704;0.152;2023-08-08T11:02:46;99086.94;;;32.51;38.19
10176;BME280;18221;38.704;0.152;2023-08-08T11:05:15;99092.47;;;32.31;38.23
10176;BME280;18221;38.704;0.152;2023-08-08T11:07:43;99091.28;;;32.67;37.50
10176;BME280;18221;38.704;0.152;2023-08-08T11:10:11;99097.81;;;32.81;37.24
10176;BME280;18221;38.704;0.152;2023-08-08T11:12:39;99101.97;;;32.74;37.33
10176;BME280;18221;38.704;0.152;2023-08-08T11:15:09;99087.88;;;32.90;37.46
10176;BME280;18221;38.704;0.152;2023-08-08T11:17:37;99100.00;;;32.89;37.34
10176;BME280;18221;38.704;0.152;2023-08-08T11:20:08;99112.59;;;33.06;36.43
10176;BME280;18221;38.704;0.152;2023-08-08T11:22:37;99112.56;;;33.11;36.90
10176;BME280;18221;38.704;0.152;2023-08-08T11:25:06;99105.38;;;33.15;36.79
10176;BME280;18221;38.704;0.152;2023-08-08T11:27:35;99114.69;;;33.24;36.35
10176;BME280;18221;38.704;0.152;2023-08-08T11:30:05;99125.50;;;33.10;36.61
10176;BME280;18221;38.704;0.152;2023-08-08T11:32:34;99123.06;;;32.93;36.69
10176;BME280;18221;38.704;0.152;2023-08-08T11:35:08;99113.44;;;32.91;36.52
10176;BME280;18221;38.704;0.152;2023-08-08T11:37:36;99113.97;;;33.08;36.16
10176;BME280;18221;38.704;0.152;2023-08-08T11:40:06;99122.38;;;33.22;35.63
10176;BME280;18221;38.704;0.152;2023-08-08T11:42:35;99127.63;;;33.23;35.83
10176;BME280;18221;38.704;0.152;2023-08-08T11:45:04;99114.03;;;32.83;36.56
10176;BME280;18221;38.704;0.152;2023-08-08T11:47:33;99108.56;;;32.73;36.94
10176;BME280;18221;38.704;0.152;2023-08-08T11:50:08;99103.06;;;32.78;37.29
10176;BME280;18221;38.704;0.152;2023-08-08T11:52:41;99092.78;;;32.98;36.33
10176;BME280;18221;38.704;0.152;2023-08-08T11:55:10;99093.84;;;33.13;36.59
10176;BME280;18221;38.704;0.152;2023-08-08T11:57:40;99095.97;;;33.26;36.00
10176;BME280;18221;38.704;0.152;2023-08-08T12:00:10;99086.53;;;33.37;35.66
10176;BME280;18221;38.704;0.152;2023-08-08T12:02:39;99082.00;;;33.12;35.77
10176;BME280;18221;38.704;0.152;2023-08-08T12:05:11;99079.84;;;33.04;36.09
10176;BME280;18221;38.704;0.152;2023-08-08T12:07:40;99078.53;;;32.86;36.48
10176;BME280;18221;38.704;0.152;2023-08-08T12:10:15;99080.75;;;32.84;36.13
10176;BME280;18221;38.704;0.152;2023-08-08T12:12:44;99079.59;;;32.90;36.26
10176;BME280;18221;38.704;0.152;2023-08-08T12:15:13;99075.44;;;33.08;36.60
10176;BME280;18221;38.704;0.152;2023-08-08T12:17:43;99090.25;;;33.12;36.10
10176;BME280;18221;38.704;0.152;2023-08-08T12:20:14;99087.50;;;33.12;36.49
10176;BME280;18221;38.704;0.152;2023-08-08T12:22:43;99081.56;;;33.39;35.73
10176;BME280;18221;38.704;0.152;2023-08-08T12:25:11;99091.19;;;33.41;35.60
10176;BME280;18221;38.704;0.152;2023-08-08T12:27:39;99080.72;;;33.38;35.67
10176;BME280;18221;38.704;0.152;2023-08-08T12:30:09;99071.94;;;33.36;35.73
10176;BME280;18221;38.704;0.152;2023-08-08T12:32:37;99065.53;;;33.46;36.02
10176;BME280;18221;38.704;0.152;2023-08-08T12:35:06;99057.78;;;33.58;35.86
10176;BME280;18221;38.704;0.152;2023-08-08T12:37:36;99053.72;;;33.40;36.00
10176;BME280;18221;38.704;0.152;2023-08-08T12:40:06;99065.75;;;33.60;35.66
10176;BME280;18221;38.704;0.152;2023-08-08T12:42:34;99074.31;;;33.58;35.11
10176;BME280;18221;38.704;0.152;2023-08-08T12:45:02;99072.34;;;33.53;35.33
10176;BME280;18221;38.704;0.152;2023-08-08T12:47:31;99052.75;;;33.65;34.94
10176;BME280;18221;38.704;0.152;2023-08-08T12:49:59;99057.53;;;33.83;35.05
10176;BME280;18221;38.704;0.152;2023-08-08T12:52:26;99048.59;;;33.96;35.17
10176;BME280;18221;38.704;0.152;2023-08-08T12:54:56;99045.59;;;33.93;34.86
10176;BME280;18221;38.704;0.152;2023-08-08T12:57:24;99030.00;;;33.83;34.18
10176;BME280;18221;38.704;0.152;2023-08-08T12:59:52;99007.75;;;34.03;34.39
10176;BME280;18221;38.704;0.152;2023-08-08T13:02:21;99015.81;;;33.95;34.49
10176;BME280;18221;38.704;0.152;2023-08-08T13:04:49;99005.00;;;34.03;34.54
10176;BME280;18221;38.704;0.152;2023-08-08T13:07:17;98994.97;;;33.89;34.65
10176;BME280;18221;38.704;0.152;2023-08-08T13:09:45;98996.06;;;33.88;34.31
10176;BME280;18221;38.704;0.152;2023-08-08T13:12:14;99001.06;;;33.86;34.49
10176;BME280;18221;38.704;0.152;2023-08-08T13:14:42;98995.81;;;33.84;34.28
10176;BME280;18221;38.704;0.152;2023-08-08T13:17:10;98992.38;;;33.74;34.32
10176;BME280;18221;38.704;0.152;2023-08-08T13:19:38;98993.78;;;33.66;35.12
10176;BME280;18221;38.704;0.152;2023-08-08T13:22:08;99012.16;;;34.04;34.52